createdAt,value
2023-03-12T00:00:50.474Z,3.70
2023-03-12T00:03:19.263Z,3.70
2023-03-12T00:05:47.276Z,3.73
2023-03-12T00:08:15.283Z,3.33
2023-03-12T00:10:43.571Z,2.37
2023-03-12T00:13:13.042Z,3.30
2023-03-12T00:15:41.219Z,2.93
2023-03-12T00:18:09.279Z,4.03
2023-03-12T00:20:37.406Z,3.13
2023-03-12T00:23:05.746Z,2.80
2023-03-12T00:25:33.707Z,3.50
2023-03-12T00:28:01.868Z,3.80
2023-03-12T00:30:32.290Z,3.70
2023-03-12T00:33:00.352Z,3.93
2023-03-12T00:35:28.517Z,3.50
2023-03-12T00:37:56.557Z,3.77
2023-03-12T00:40:24.684Z,3.73
2023-03-12T00:42:52.896Z,3.20
2023-03-12T00:45:21.135Z,3.20
2023-03-12T00:47:50.569Z,3.33
2023-03-12T00:50:19.080Z,3.50
2023-03-12T00:52:47.281Z,3.20
2023-03-12T00:55:15.288Z,2.23
2023-03-12T00:57:43.275Z,3.80
2023-03-12T01:00:13.503Z,3.40
2023-03-12T01:02:42.658Z,3.50
2023-03-12T01:05:14.197Z,3.57
2023-03-12T01:07:42.263Z,3.00
2023-03-12T01:10:13.250Z,3.17
2023-03-12T01:12:41.267Z,2.30
2023-03-12T01:15:11.054Z,3.50
2023-03-12T01:17:39.005Z,3.40
2023-03-12T01:20:08.484Z,4.03
2023-03-12T01:22:38.554Z,3.50
2023-03-12T01:25:07.856Z,3.40
2023-03-12T01:27:35.812Z,3.67
2023-03-12T01:30:04.281Z,3.40
2023-03-12T01:32:32.539Z,2.93
2023-03-12T01:35:01.276Z,3.33
2023-03-12T01:37:29.583Z,2.90
2023-03-12T01:39:58.882Z,3.33
2023-03-12T01:42:27.107Z,3.40
2023-03-12T01:44:56.979Z,3.30
2023-03-12T01:47:25.265Z,3.30
2023-03-12T01:49:55.508Z,3.30
2023-03-12T01:52:26.182Z,3.37
2023-03-12T01:54:57.665Z,3.10
2023-03-12T01:57:31.618Z,3.50
2023-03-12T02:00:04.793Z,3.00
2023-03-12T02:02:33.287Z,3.50
2023-03-12T02:05:12.953Z,2.43
2023-03-12T02:07:40.924Z,3.07
2023-03-12T02:10:09.992Z,3.50
2023-03-12T02:12:39.521Z,3.20
2023-03-12T02:15:09.226Z,3.10
2023-03-12T02:17:38.064Z,3.23
2023-03-12T02:20:14.131Z,3.20
2023-03-12T02:22:47.478Z,3.80
2023-03-12T02:25:30.822Z,3.17
2023-03-12T02:28:00.120Z,4.13
2023-03-12T02:30:31.195Z,2.93
2023-03-12T02:33:02.929Z,4.27
2023-03-12T02:35:30.964Z,2.90
2023-03-12T02:37:59.438Z,3.43
2023-03-12T02:40:32.927Z,3.10
2023-03-12T02:43:01.962Z,3.13
2023-03-12T02:45:30.628Z,4.00
2023-03-12T02:47:58.815Z,3.20
2023-03-12T02:50:26.819Z,3.63
2023-03-12T02:52:54.863Z,3.23
2023-03-12T02:55:23.023Z,3.17
2023-03-12T02:57:52.384Z,2.90
2023-03-12T03:00:21.533Z,2.70
2023-03-12T03:02:49.514Z,2.70
2023-03-12T03:05:17.695Z,2.40
2023-03-12T03:07:45.658Z,2.33
2023-03-12T03:10:15.610Z,2.13
2023-03-12T03:12:43.817Z,2.47
2023-03-12T03:15:13.387Z,2.27
2023-03-12T03:17:41.666Z,2.27
2023-03-12T03:20:11.904Z,4.07
2023-03-12T03:22:40.619Z,2.80
2023-03-12T03:25:10.766Z,2.87
2023-03-12T03:27:38.888Z,2.93
2023-03-12T03:30:08.686Z,2.60
2023-03-12T03:32:39.237Z,2.80
2023-03-12T03:35:08.037Z,2.97
2023-03-12T03:37:36.011Z,3.83
2023-03-12T03:40:04.673Z,2.70
2023-03-12T03:42:32.947Z,3.03
2023-03-12T03:45:01.160Z,2.50
2023-03-12T03:47:29.170Z,2.60
2023-03-12T03:49:58.680Z,2.77
2023-03-12T03:52:26.703Z,2.57
2023-03-12T03:54:54.822Z,2.33
2023-03-12T03:57:23.006Z,2.87
2023-03-12T03:59:51.401Z,2.27
2023-03-12T04:02:19.809Z,1.97
2023-03-12T04:04:47.965Z,2.13
2023-03-12T04:07:17.561Z,1.80
2023-03-12T04:09:46.133Z,2.07
2023-03-12T04:12:14.333Z,1.83
2023-03-12T04:14:42.936Z,1.53
2023-03-12T04:17:11.179Z,1.83
2023-03-12T04:19:39.562Z,1.70
2023-03-12T04:22:07.639Z,1.73
2023-03-12T04:24:37.153Z,1.80
2023-03-12T04:27:05.922Z,1.80
2023-03-12T04:29:34.254Z,1.60
2023-03-12T04:32:02.260Z,2.00
2023-03-12T04:34:30.236Z,2.63
2023-03-12T04:36:58.354Z,1.70
2023-03-12T04:39:26.446Z,1.73
2023-03-12T04:41:56.110Z,1.83
2023-03-12T04:44:24.376Z,1.80
2023-03-12T04:46:52.479Z,1.50
2023-03-12T04:49:20.596Z,1.90
2023-03-12T04:51:48.657Z,1.90
2023-03-12T04:54:16.707Z,2.10
2023-03-12T04:56:45.223Z,1.90
2023-03-12T04:59:14.954Z,2.10
2023-03-12T05:01:43.372Z,2.03
2023-03-12T05:04:11.422Z,2.30
2023-03-12T05:06:39.544Z,2.13
2023-03-12T05:09:08.599Z,2.10
2023-03-12T05:11:39.196Z,2.20
2023-03-12T05:14:08.008Z,2.07
2023-03-12T05:16:37.541Z,2.50
2023-03-12T05:19:06.158Z,2.00
2023-03-12T05:21:34.578Z,2.40
2023-03-12T05:24:02.938Z,2.07
2023-03-12T05:26:33.205Z,2.30
2023-03-12T05:29:01.930Z,2.50
2023-03-12T05:31:33.151Z,2.00
2023-03-12T05:34:03.036Z,2.30
2023-03-12T05:36:31.200Z,2.00
2023-03-12T05:38:59.446Z,2.10
2023-03-12T05:41:29.514Z,2.20
2023-03-12T05:43:58.644Z,2.00
2023-03-12T05:46:27.956Z,2.27
2023-03-12T05:48:56.082Z,2.03
2023-03-12T05:51:25.738Z,1.83
2023-03-12T05:53:53.844Z,2.00
2023-03-12T05:56:22.010Z,1.67
2023-03-12T05:58:50.945Z,2.00
2023-03-12T06:01:21.569Z,2.07
2023-03-12T06:03:49.964Z,2.10
2023-03-12T06:06:18.982Z,1.97
2023-03-12T06:08:48.602Z,2.10
2023-03-12T06:11:16.909Z,2.20
2023-03-12T06:13:45.033Z,1.93
2023-03-12T06:16:18.896Z,2.03
2023-03-12T06:18:47.019Z,4.67
2023-03-12T06:21:17.551Z,2.00
2023-03-12T06:23:46.543Z,2.20
2023-03-12T06:26:17.642Z,2.10
2023-03-12T06:28:46.906Z,2.23
2023-03-12T06:31:15.372Z,1.93
2023-03-12T06:33:43.715Z,2.20
2023-03-12T06:36:12.816Z,2.13
2023-03-12T06:38:42.068Z,2.20
2023-03-12T06:41:12.553Z,2.00
2023-03-12T06:43:42.465Z,1.90
2023-03-12T06:46:14.320Z,1.47
2023-03-12T06:48:42.445Z,2.57
2023-03-12T06:51:11.969Z,2.03
2023-03-12T06:53:42.386Z,1.80
2023-03-12T06:56:10.914Z,2.10
2023-03-12T06:58:39.700Z,1.90
2023-03-12T07:01:10.084Z,1.80
2023-03-12T07:03:38.102Z,1.80
2023-03-12T07:06:06.852Z,1.63
2023-03-12T07:08:35.065Z,1.87
2023-03-12T07:11:03.766Z,2.40
2023-03-12T07:13:32.133Z,2.13
2023-03-12T07:16:00.205Z,1.40
2023-03-12T07:18:29.712Z,2.00
2023-03-12T07:20:57.759Z,1.90
2023-03-12T07:23:25.784Z,1.90
2023-03-12T07:25:54.418Z,1.60
2023-03-12T07:28:22.813Z,2.10
2023-03-12T07:30:51.437Z,1.70
2023-03-12T07:33:21.097Z,1.60
2023-03-12T07:35:51.973Z,2.07
2023-03-12T07:38:20.882Z,2.00
2023-03-12T07:40:52.002Z,1.83
2023-03-12T07:43:21.649Z,1.80
2023-03-12T07:45:49.930Z,1.60
2023-03-12T07:48:19.898Z,1.90
2023-03-12T07:50:48.740Z,2.37
2023-03-12T07:53:18.717Z,1.90
2023-03-12T07:55:48.298Z,1.70
2023-03-12T07:58:16.707Z,1.63
2023-03-12T08:00:45.094Z,2.03
2023-03-12T08:03:13.420Z,1.50
2023-03-12T08:05:41.875Z,1.80
2023-03-12T08:08:10.674Z,1.53
2023-03-12T08:10:40.135Z,1.63
2023-03-12T08:13:08.128Z,1.97
2023-03-12T08:15:36.139Z,2.00
2023-03-12T08:18:04.344Z,1.60
2023-03-12T08:20:32.592Z,1.90
2023-03-12T08:23:00.581Z,1.93
2023-03-12T08:25:28.966Z,1.77
2023-03-12T08:27:58.285Z,1.60
2023-03-12T08:30:29.092Z,2.33
2023-03-12T08:32:58.380Z,2.23
2023-03-12T08:35:26.421Z,2.50
2023-03-12T08:37:54.592Z,1.80
2023-03-12T08:40:22.684Z,2.10
2023-03-12T08:42:50.870Z,1.70
2023-03-12T08:45:20.489Z,1.70
2023-03-12T08:47:48.451Z,1.80
2023-03-12T08:50:17.913Z,1.90
2023-03-12T08:52:45.964Z,1.67
2023-03-12T08:55:14.096Z,1.80
2023-03-12T08:57:42.532Z,1.80
2023-03-12T09:00:15.096Z,1.70
2023-03-12T09:02:46.216Z,2.07
2023-03-12T09:05:14.776Z,1.93
2023-03-12T09:07:43.439Z,2.00
2023-03-12T09:10:12.444Z,1.70
2023-03-12T09:12:40.841Z,1.73
2023-03-12T09:15:10.281Z,1.90
2023-03-12T09:17:38.871Z,1.90
2023-03-12T09:20:14.020Z,1.90
2023-03-12T09:22:42.661Z,1.93
2023-03-12T09:25:12.367Z,1.77
2023-03-12T09:27:41.909Z,1.93
2023-03-12T09:30:12.619Z,2.40
2023-03-12T09:32:40.745Z,1.83
2023-03-12T09:35:11.088Z,1.93
2023-03-12T09:37:39.107Z,2.03
2023-03-12T09:40:08.921Z,2.03
2023-03-12T09:42:42.547Z,2.03
2023-03-12T09:45:18.119Z,1.43
2023-03-12T09:47:50.577Z,2.00
2023-03-12T09:50:26.147Z,1.97
2023-03-12T09:52:59.772Z,1.97
2023-03-12T09:55:30.083Z,1.70
2023-03-12T09:57:59.571Z,1.77
2023-03-12T10:00:31.896Z,1.60
2023-03-12T10:03:16.021Z,1.90
2023-03-12T10:05:48.484Z,1.90
2023-03-12T10:08:29.121Z,2.43
2023-03-12T10:11:07.111Z,2.30
2023-03-12T10:13:48.483Z,1.70
2023-03-12T10:16:33.569Z,1.80
2023-03-12T10:19:14.553Z,2.10
2023-03-12T10:21:53.597Z,1.40
2023-03-12T10:24:37.581Z,1.50
2023-03-12T10:27:13.320Z,1.87
2023-03-12T10:29:45.192Z,1.30
2023-03-12T10:32:18.202Z,1.50
2023-03-12T10:34:48.890Z,1.63
2023-03-12T10:37:23.667Z,1.67
2023-03-12T10:39:52.870Z,1.80
2023-03-12T10:42:24.009Z,1.30
2023-03-12T10:44:54.915Z,1.70
2023-03-12T10:47:37.189Z,1.80
2023-03-12T10:50:15.188Z,1.83
2023-03-12T10:52:45.767Z,1.97
2023-03-12T10:55:21.754Z,1.87
2023-03-12T10:57:50.786Z,1.73
2023-03-12T11:00:22.892Z,1.90
2023-03-12T11:02:59.328Z,1.50
2023-03-12T11:05:30.727Z,1.63
2023-03-12T11:08:02.054Z,1.50
2023-03-12T11:10:43.120Z,1.73
2023-03-12T11:13:28.358Z,1.57
2023-03-12T11:15:58.016Z,1.60
2023-03-12T11:18:36.604Z,1.40
2023-03-12T11:21:17.586Z,1.70
2023-03-12T11:24:07.382Z,1.27
2023-03-12T11:26:40.900Z,1.97
2023-03-12T11:29:18.685Z,1.80
2023-03-12T11:31:56.206Z,1.70
2023-03-12T11:34:28.430Z,1.60
2023-03-12T11:37:05.980Z,1.60
2023-03-12T11:39:57.422Z,1.73
2023-03-12T11:42:39.152Z,1.70
2023-03-12T11:45:15.801Z,2.17
2023-03-12T11:47:57.120Z,1.97
2023-03-12T11:50:37.123Z,1.90
2023-03-12T11:53:24.843Z,1.30
2023-03-12T11:56:01.506Z,1.97
2023-03-12T11:58:55.074Z,2.03
2023-03-12T12:01:32.670Z,1.60
2023-03-12T12:04:38.939Z,1.50
2023-03-12T12:07:16.841Z,1.90
2023-03-12T12:09:52.466Z,2.33
2023-03-12T12:12:36.003Z,1.50
2023-03-12T12:15:16.011Z,1.60
2023-03-12T12:17:57.748Z,1.60
2023-03-12T12:20:39.067Z,1.70
2023-03-12T12:23:17.567Z,1.90
2023-03-12T12:26:05.618Z,1.77
2023-03-12T12:28:58.289Z,1.67
2023-03-12T12:31:33.308Z,1.50
2023-03-12T12:34:39.154Z,1.60
2023-03-12T12:37:22.743Z,1.60
2023-03-12T12:39:57.316Z,1.40
2023-03-12T12:42:30.968Z,1.30
2023-03-12T12:45:04.437Z,1.60
2023-03-12T12:47:41.612Z,1.70
2023-03-12T12:50:17.458Z,1.50
2023-03-12T12:52:47.365Z,1.80
2023-03-12T12:55:20.834Z,1.73
2023-03-12T12:57:54.312Z,1.77
2023-03-12T13:00:44.773Z,1.20
2023-03-12T13:03:17.577Z,1.93
2023-03-12T13:05:54.164Z,2.00
2023-03-12T13:08:51.109Z,2.03
2023-03-12T13:11:41.624Z,1.97
2023-03-12T13:14:38.247Z,1.80
2023-03-12T13:17:34.664Z,1.10
2023-03-12T13:20:16.489Z,1.70
2023-03-12T13:23:06.509Z,1.27
2023-03-12T13:25:51.710Z,2.00
2023-03-12T13:28:36.081Z,1.73
2023-03-12T13:31:05.758Z,2.93
2023-03-12T13:33:46.584Z,3.30
2023-03-12T13:36:25.360Z,1.43
2023-03-12T13:39:00.045Z,1.90
2023-03-12T13:54:20.658Z,3.90
2023-03-12T14:02:45.185Z,1.70
2023-03-12T14:05:16.268Z,1.90
2023-03-12T14:07:59.209Z,2.10
2023-03-12T14:10:33.698Z,1.50
2023-03-12T14:13:07.376Z,1.70
2023-03-12T14:15:50.945Z,1.83
2023-03-12T14:18:22.045Z,1.50
2023-03-12T14:20:54.095Z,2.07
2023-03-12T14:23:23.884Z,1.73
2023-03-12T14:25:55.835Z,2.07
2023-03-12T14:28:25.971Z,1.67
2023-03-12T14:31:00.970Z,1.93
2023-03-12T14:33:35.154Z,2.37
2023-03-12T14:36:07.936Z,2.40
2023-03-12T14:38:40.736Z,2.40
2023-03-12T14:41:16.682Z,1.90
2023-03-12T14:43:46.464Z,2.37
2023-03-12T14:46:17.011Z,4.87
2023-03-12T14:48:48.616Z,2.53
2023-03-12T14:51:24.067Z,3.47
2023-03-12T14:53:52.991Z,2.87
2023-03-12T14:56:29.583Z,2.50
2023-03-12T14:58:59.291Z,2.20
2023-03-12T15:01:30.516Z,2.40
2023-03-12T15:04:01.362Z,5.80
2023-03-12T15:06:32.352Z,6.70
2023-03-12T15:09:04.489Z,4.07
2023-03-12T15:11:35.966Z,3.20
2023-03-12T15:14:07.853Z,2.37
2023-03-12T15:16:36.948Z,3.10
2023-03-12T15:19:05.829Z,2.70
2023-03-12T15:21:35.552Z,2.67
2023-03-12T15:24:05.043Z,2.40
2023-03-12T15:26:38.148Z,2.43
2023-03-12T15:29:26.313Z,2.73
2023-03-12T15:31:56.975Z,2.30
2023-03-12T15:34:32.908Z,2.70
2023-03-12T15:37:03.781Z,2.30
2023-03-12T15:39:33.753Z,2.97
2023-03-12T15:42:09.658Z,2.63
2023-03-12T15:44:46.954Z,3.10
2023-03-12T15:47:17.959Z,2.73
2023-03-12T15:49:52.994Z,2.37
2023-03-12T15:52:31.113Z,2.60
2023-03-12T15:55:06.014Z,3.27
2023-03-12T15:57:45.593Z,3.23
2023-03-12T16:00:24.032Z,2.57
2023-03-12T16:02:55.356Z,2.60
2023-03-12T16:05:26.970Z,3.00
2023-03-12T16:07:55.234Z,2.17
2023-03-12T16:10:26.817Z,2.47
2023-03-12T16:13:01.638Z,4.20
2023-03-12T16:15:33.500Z,9.83
2023-03-12T16:18:01.527Z,6.63
2023-03-12T16:20:30.454Z,9.20
2023-03-12T16:22:58.793Z,13.90
2023-03-12T16:25:27.111Z,27.13
2023-03-12T16:28:01.535Z,20.63
2023-03-12T16:30:31.678Z,9.60
2023-03-12T16:33:02.062Z,12.43
2023-03-12T16:35:31.474Z,8.67
2023-03-12T16:38:00.922Z,11.17
2023-03-12T16:40:33.821Z,15.63
2023-03-12T16:43:06.755Z,24.50
2023-03-12T16:45:37.077Z,16.00
2023-03-12T16:48:07.201Z,17.77
2023-03-12T16:50:35.686Z,19.87
2023-03-12T16:53:05.472Z,16.63
2023-03-12T16:55:45.600Z,20.33
2023-03-12T16:58:17.760Z,17.80
2023-03-12T17:00:47.215Z,15.20
2023-03-12T17:03:20.559Z,18.17
2023-03-12T17:05:48.714Z,10.80
2023-03-12T17:08:17.146Z,9.70
2023-03-12T17:10:45.580Z,14.40
2023-03-12T17:13:23.949Z,14.80
2023-03-12T17:15:53.083Z,8.80
2023-03-12T17:18:21.954Z,10.77
2023-03-12T17:20:51.902Z,10.80
2023-03-12T17:23:20.195Z,28.13
2023-03-12T17:25:48.522Z,20.30
2023-03-12T17:28:16.758Z,24.73
2023-03-12T17:30:47.425Z,26.13
2023-03-12T17:33:17.517Z,18.27
2023-03-12T17:35:45.769Z,33.57
2023-03-12T17:38:14.464Z,36.80
2023-03-12T17:40:44.581Z,28.23
2023-03-12T17:43:12.707Z,20.73
2023-03-12T17:45:41.809Z,32.13
2023-03-12T17:48:11.458Z,44.70
2023-03-12T17:50:39.938Z,35.37
2023-03-12T17:53:08.216Z,37.10
2023-03-12T17:55:36.934Z,29.47
2023-03-12T17:58:06.157Z,36.13
2023-03-12T18:00:35.251Z,39.00
2023-03-12T18:03:03.547Z,34.23
2023-03-12T18:05:33.148Z,35.43
2023-03-12T18:08:01.484Z,35.27
2023-03-12T18:10:29.998Z,32.30
2023-03-12T18:12:58.711Z,31.53
2023-03-12T18:15:27.283Z,27.80
2023-03-12T18:17:56.836Z,29.30
2023-03-12T18:20:36.212Z,28.10
2023-03-12T18:23:07.749Z,31.90
2023-03-12T18:25:35.856Z,32.63
2023-03-12T18:28:04.354Z,29.87
2023-03-12T18:30:33.009Z,28.87
2023-03-12T18:33:01.107Z,25.80
2023-03-12T18:35:30.719Z,27.60
2023-03-12T18:37:59.428Z,24.53
2023-03-12T18:40:29.888Z,19.70
2023-03-12T18:42:59.630Z,17.07
2023-03-12T18:45:30.092Z,16.87
2023-03-12T18:47:58.995Z,16.60
2023-03-12T18:50:34.791Z,15.87
2023-03-12T18:53:06.509Z,15.50
2023-03-12T18:55:36.086Z,14.50
2023-03-12T18:58:04.436Z,14.93
2023-03-12T19:00:32.680Z,17.37
2023-03-12T19:03:00.921Z,17.37
2023-03-12T19:05:29.432Z,25.77
2023-03-12T19:07:57.672Z,33.47
2023-03-12T19:10:26.099Z,62.00
2023-03-12T19:12:55.610Z,30.10
2023-03-12T19:15:25.206Z,25.70
2023-03-12T19:17:54.255Z,26.80
2023-03-12T19:20:23.045Z,26.17
2023-03-12T19:22:51.340Z,22.73
2023-03-12T19:25:20.229Z,21.67
2023-03-12T19:27:48.521Z,22.83
2023-03-12T19:30:18.502Z,23.97
2023-03-12T19:32:47.317Z,25.07
2023-03-12T19:35:16.562Z,36.00
2023-03-12T19:37:44.908Z,31.40
2023-03-12T19:40:14.356Z,32.10
2023-03-12T19:42:42.531Z,28.03
2023-03-12T19:45:12.019Z,26.27
2023-03-12T19:47:41.845Z,29.03
2023-03-12T19:50:11.897Z,26.67
2023-03-12T19:52:39.961Z,25.07
2023-03-12T19:55:09.832Z,23.10
2023-03-12T19:57:37.894Z,21.70
2023-03-12T20:00:09.618Z,20.53
2023-03-12T20:02:38.921Z,18.13
2023-03-12T20:05:09.943Z,18.83
2023-03-12T20:07:38.174Z,20.23
2023-03-12T20:10:09.957Z,17.23
2023-03-12T20:12:38.420Z,17.40
2023-03-12T20:15:09.107Z,17.33
2023-03-12T20:17:37.430Z,19.93
2023-03-12T20:20:09.589Z,22.60
2023-03-12T20:22:37.621Z,23.63
2023-03-12T20:25:06.885Z,22.97
2023-03-12T20:27:35.295Z,19.80
2023-03-12T20:30:04.742Z,18.50
2023-03-12T20:32:33.347Z,18.50
2023-03-12T20:35:03.094Z,17.97
2023-03-12T20:37:32.801Z,18.77
2023-03-12T20:40:00.880Z,18.10
2023-03-12T20:42:28.942Z,21.07
2023-03-12T20:44:56.974Z,18.37
2023-03-12T20:47:25.243Z,19.50
2023-03-12T20:49:53.508Z,20.30
2023-03-12T20:52:21.539Z,19.27
2023-03-12T20:54:51.207Z,20.17
2023-03-12T20:57:19.360Z,20.77
2023-03-12T20:59:47.778Z,19.73
2023-03-12T21:02:16.260Z,17.27
2023-03-12T21:04:44.601Z,17.63
2023-03-12T21:07:12.926Z,20.60
2023-03-12T21:09:41.243Z,21.27
2023-03-12T21:12:10.829Z,20.50
2023-03-12T21:14:40.048Z,18.40
2023-03-12T21:17:13.841Z,17.67
2023-03-12T21:19:42.850Z,19.40
2023-03-12T21:22:11.605Z,18.73
2023-03-12T21:24:40.090Z,18.50
2023-03-12T21:27:11.582Z,18.57
2023-03-12T21:29:41.376Z,19.13
2023-03-12T21:32:09.866Z,18.90
2023-03-12T21:34:38.578Z,17.83
2023-03-12T21:37:07.324Z,18.23
2023-03-12T21:39:36.480Z,19.60
2023-03-12T21:42:05.257Z,13.93
2023-03-12T21:44:35.702Z,17.90
2023-03-12T21:47:05.890Z,13.43
2023-03-12T21:49:35.158Z,39.60
2023-03-12T21:52:03.533Z,41.00
2023-03-12T21:54:37.463Z,22.23
2023-03-12T21:57:06.558Z,33.67
2023-03-12T21:59:35.069Z,24.40
2023-03-12T22:02:04.810Z,16.07
2023-03-12T22:04:33.305Z,32.60
2023-03-12T22:07:01.567Z,28.03
2023-03-12T22:09:29.676Z,16.50
2023-03-12T22:11:58.080Z,40.20
2023-03-12T22:14:26.980Z,23.37
2023-03-12T22:16:56.014Z,16.60
2023-03-12T22:19:25.801Z,21.70
2023-03-12T22:21:54.583Z,26.23
2023-03-12T22:24:22.963Z,17.70
2023-03-12T22:26:52.122Z,22.67
2023-03-12T22:29:20.674Z,23.30
2023-03-12T22:31:50.248Z,22.13
2023-03-12T22:34:18.302Z,15.07
2023-03-12T22:36:47.819Z,15.07
2023-03-12T22:39:17.475Z,42.40
2023-03-12T22:41:45.575Z,45.20
2023-03-12T22:44:15.649Z,16.17
2023-03-12T22:46:44.181Z,16.30
2023-03-12T22:49:12.907Z,12.90
2023-03-12T22:51:41.395Z,17.90
2023-03-12T22:54:11.412Z,35.17
2023-03-12T22:56:40.085Z,17.60
2023-03-12T22:59:08.481Z,16.57
2023-03-12T23:01:37.088Z,17.83
2023-03-12T23:04:06.443Z,18.07
2023-03-12T23:06:34.987Z,17.17
2023-03-12T23:09:03.661Z,17.47
2023-03-12T23:11:33.868Z,26.80
2023-03-12T23:14:03.082Z,32.67
2023-03-12T23:16:31.744Z,32.57
2023-03-12T23:19:00.909Z,25.10
2023-03-12T23:21:29.337Z,26.57
2023-03-12T23:23:57.517Z,24.27
2023-03-12T23:26:27.618Z,10.80
2023-03-12T23:28:58.032Z,16.00
2023-03-12T23:31:27.744Z,11.17
2023-03-12T23:33:56.751Z,11.53
2023-03-12T23:36:25.280Z,9.10
2023-03-12T23:38:53.305Z,12.00
2023-03-12T23:41:22.939Z,18.90
2023-03-12T23:43:51.693Z,11.33
2023-03-12T23:46:21.784Z,12.63
2023-03-12T23:48:50.724Z,10.67
2023-03-12T23:51:20.430Z,13.10
2023-03-12T23:53:50.006Z,15.93
2023-03-12T23:56:19.911Z,11.53
2023-03-12T23:58:48.601Z,12.77
